sensor_id;sensor_type;location;lat;lon;timestamp;P1;durP1;ratioP1;P2;durP2;ratioP2
25359;SDS011;13311;51.386;0.016;2023-10-13T00:04:22;1.35;;;0.40;;
25359;SDS011;13311;51.386;0.016;2023-10-13T00:09:24;0.40;;;0.20;;
25359;SDS011;13311;51.386;0.016;2023-10-13T00:14:32;0.75;;;0.35;;
25359;SDS011;13311;51.386;0.016;2023-10-13T00:19:36;0.57;;;0.30;;
25359;SDS011;13311;51.386;0.016;2023-10-13T00:24:45;0.38;;;0.38;;
25359;SDS011;13311;51.386;0.016;2023-10-13T00:29:46;0.65;;;0.35;;
25359;SDS011;13311;51.386;0.016;2023-10-13T00:34:47;1.23;;;0.45;;
25359;SDS011;13311;51.386;0.016;2023-10-13T00:39:47;0.55;;;0.30;;
25359;SDS011;13311;51.386;0.016;2023-10-13T00:44:48;0.52;;;0.20;;
25359;SDS011;13311;51.386;0.016;2023-10-13T00:49:49;0.65;;;0.25;;
25359;SDS011;13311;51.386;0.016;2023-10-13T00:54:50;0.45;;;0.20;;
25359;SDS011;13311;51.386;0.016;2023-10-13T00:59:57;0.65;;;0.30;;
25359;SDS011;13311;51.386;0.016;2023-10-13T01:04:59;0.20;;;0.15;;
25359;SDS011;13311;51.386;0.016;2023-10-13T01:10:00;0.40;;;0.20;;
25359;SDS011;13311;51.386;0.016;2023-10-13T01:15:04;0.93;;;0.30;;
25359;SDS011;13311;51.386;0.016;2023-10-13T01:20:11;0.63;;;0.08;;
25359;SDS011;13311;51.386;0.016;2023-10-13T01:25:19;1.27;;;0.38;;
25359;SDS011;13311;51.386;0.016;2023-10-13T01:30:20;7.28;;;1.35;;
25359;SDS011;13311;51.386;0.016;2023-10-13T01:35:26;7.90;;;2.33;;
25359;SDS011;13311;51.386;0.016;2023-10-13T01:40:35;7.43;;;2.38;;
25359;SDS011;13311;51.386;0.016;2023-10-13T01:45:38;15.13;;;3.45;;
25359;SDS011;13311;51.386;0.016;2023-10-13T01:50:47;7.95;;;3.60;;
25359;SDS011;13311;51.386;0.016;2023-10-13T01:55:52;9.93;;;3.67;;
25359;SDS011;13311;51.386;0.016;2023-10-13T02:00:56;11.75;;;4.30;;
25359;SDS011;13311;51.386;0.016;2023-10-13T02:05:59;7.82;;;3.50;;
25359;SDS011;13311;51.386;0.016;2023-10-13T02:11:04;9.52;;;4.47;;
25359;SDS011;13311;51.386;0.016;2023-10-13T02:16:07;13.27;;;4.60;;
25359;SDS011;13311;51.386;0.016;2023-10-13T02:21:08;13.38;;;3.85;;
25359;SDS011;13311;51.386;0.016;2023-10-13T02:26:13;10.00;;;4.72;;
25359;SDS011;13311;51.386;0.016;2023-10-13T02:31:15;9.75;;;3.97;;
25359;SDS011;13311;51.386;0.016;2023-10-13T02:36:19;13.55;;;5.10;;
25359;SDS011;13311;51.386;0.016;2023-10-13T02:41:23;12.80;;;4.72;;
25359;SDS011;13311;51.386;0.016;2023-10-13T02:46:28;16.77;;;5.63;;
25359;SDS011;13311;51.386;0.016;2023-10-13T02:51:29;15.15;;;6.57;;
25359;SDS011;13311;51.386;0.016;2023-10-13T02:56:37;18.27;;;5.97;;
25359;SDS011;13311;51.386;0.016;2023-10-13T03:01:57;16.75;;;6.22;;
25359;SDS011;13311;51.386;0.016;2023-10-13T03:06:57;18.33;;;6.68;;
25359;SDS011;13311;51.386;0.016;2023-10-13T03:11:59;13.35;;;5.80;;
25359;SDS011;13311;51.386;0.016;2023-10-13T03:17:01;19.88;;;6.10;;
25359;SDS011;13311;51.386;0.016;2023-10-13T03:22:09;22.00;;;6.35;;
25359;SDS011;13311;51.386;0.016;2023-10-13T03:27:17;20.80;;;7.50;;
25359;SDS011;13311;51.386;0.016;2023-10-13T03:32:23;13.40;;;6.30;;
25359;SDS011;13311;51.386;0.016;2023-10-13T03:37:26;20.10;;;6.97;;
25359;SDS011;13311;51.386;0.016;2023-10-13T03:42:38;20.38;;;7.03;;
25359;SDS011;13311;51.386;0.016;2023-10-13T03:47:40;26.30;;;7.78;;
25359;SDS011;13311;51.386;0.016;2023-10-13T03:52:42;13.32;;;5.82;;
25359;SDS011;13311;51.386;0.016;2023-10-13T03:57:44;16.85;;;6.75;;
25359;SDS011;13311;51.386;0.016;2023-10-13T04:02:46;15.80;;;6.18;;
25359;SDS011;13311;51.386;0.016;2023-10-13T04:07:52;16.25;;;5.43;;
25359;SDS011;13311;51.386;0.016;2023-10-13T04:13:12;17.73;;;6.28;;
25359;SDS011;13311;51.386;0.016;2023-10-13T04:18:31;18.15;;;6.28;;
25359;SDS011;13311;51.386;0.016;2023-10-13T04:23:47;11.95;;;4.88;;
25359;SDS011;13311;51.386;0.016;2023-10-13T04:29:06;12.88;;;5.25;;
25359;SDS011;13311;51.386;0.016;2023-10-13T04:34:26;16.33;;;5.57;;
25359;SDS011;13311;51.386;0.016;2023-10-13T04:39:28;9.52;;;4.70;;
25359;SDS011;13311;51.386;0.016;2023-10-13T04:44:35;16.05;;;6.35;;
25359;SDS011;13311;51.386;0.016;2023-10-13T04:49:41;14.05;;;5.28;;
25359;SDS011;13311;51.386;0.016;2023-10-13T04:54:43;17.73;;;6.35;;
25359;SDS011;13311;51.386;0.016;2023-10-13T04:59:49;11.70;;;5.22;;
25359;SDS011;13311;51.386;0.016;2023-10-13T05:05:10;22.77;;;7.63;;
25359;SDS011;13311;51.386;0.016;2023-10-13T05:10:14;17.02;;;5.88;;
25359;SDS011;13311;51.386;0.016;2023-10-13T05:15:33;17.88;;;7.03;;
25359;SDS011;13311;51.386;0.016;2023-10-13T05:20:55;18.92;;;6.82;;
25359;SDS011;13311;51.386;0.016;2023-10-13T05:26:14;18.65;;;7.43;;
25359;SDS011;13311;51.386;0.016;2023-10-13T05:31:33;22.55;;;6.55;;
25359;SDS011;13311;51.386;0.016;2023-10-13T05:36:52;22.48;;;7.03;;
25359;SDS011;13311;51.386;0.016;2023-10-13T05:42:12;16.15;;;6.85;;
25359;SDS011;13311;51.386;0.016;2023-10-13T05:47:31;28.63;;;7.07;;
25359;SDS011;13311;51.386;0.016;2023-10-13T05:52:41;16.92;;;6.70;;
25359;SDS011;13311;51.386;0.016;2023-10-13T05:57:56;24.80;;;8.07;;
25359;SDS011;13311;51.386;0.016;2023-10-13T06:03:15;19.65;;;6.72;;
25359;SDS011;13311;51.386;0.016;2023-10-13T06:08:35;26.95;;;7.43;;
25359;SDS011;13311;51.386;0.016;2023-10-13T06:13:54;15.90;;;6.65;;
25359;SDS011;13311;51.386;0.016;2023-10-13T06:19:13;18.48;;;7.25;;
25359;SDS011;13311;51.386;0.016;2023-10-13T06:24:32;23.08;;;7.22;;
25359;SDS011;13311;51.386;0.016;2023-10-13T06:29:51;20.75;;;7.15;;
25359;SDS011;13311;51.386;0.016;2023-10-13T06:34:55;19.05;;;7.15;;
25359;SDS011;13311;51.386;0.016;2023-10-13T06:40:10;21.17;;;8.02;;
25359;SDS011;13311;51.386;0.016;2023-10-13T06:45:21;26.40;;;8.02;;
25359;SDS011;13311;51.386;0.016;2023-10-13T06:50:22;20.55;;;6.75;;
25359;SDS011;13311;51.386;0.016;2023-10-13T06:55:24;30.10;;;7.70;;
25359;SDS011;13311;51.386;0.016;2023-10-13T07:00:28;19.80;;;6.78;;
25359;SDS011;13311;51.386;0.016;2023-10-13T07:05:30;19.42;;;8.05;;
25359;SDS011;13311;51.386;0.016;2023-10-13T07:10:37;34.55;;;9.05;;
25359;SDS011;13311;51.386;0.016;2023-10-13T07:15:51;27.60;;;7.63;;
25359;SDS011;13311;51.386;0.016;2023-10-13T07:20:52;27.70;;;7.65;;
25359;SDS011;13311;51.386;0.016;2023-10-13T07:25:57;26.42;;;7.95;;
25359;SDS011;13311;51.386;0.016;2023-10-13T07:31:03;22.38;;;8.13;;
25359;SDS011;13311;51.386;0.016;2023-10-13T07:36:07;20.58;;;7.97;;
25359;SDS011;13311;51.386;0.016;2023-10-13T07:41:24;18.60;;;6.10;;
25359;SDS011;13311;51.386;0.016;2023-10-13T07:46:30;26.15;;;7.60;;
25359;SDS011;13311;51.386;0.016;2023-10-13T07:51:35;26.55;;;7.45;;
25359;SDS011;13311;51.386;0.016;2023-10-13T07:56:45;24.95;;;7.30;;
25359;SDS011;13311;51.386;0.016;2023-10-13T08:01:45;17.98;;;6.95;;
25359;SDS011;13311;51.386;0.016;2023-10-13T08:06:46;22.52;;;7.93;;
25359;SDS011;13311;51.386;0.016;2023-10-13T08:11:48;19.20;;;6.35;;
25359;SDS011;13311;51.386;0.016;2023-10-13T08:16:54;18.80;;;6.60;;
25359;SDS011;13311;51.386;0.016;2023-10-13T08:22:01;15.55;;;6.47;;
25359;SDS011;13311;51.386;0.016;2023-10-13T08:27:21;17.27;;;6.50;;
25359;SDS011;13311;51.386;0.016;2023-10-13T08:32:40;13.50;;;5.13;;
25359;SDS011;13311;51.386;0.016;2023-10-13T08:37:54;12.63;;;5.30;;
25359;SDS011;13311;51.386;0.016;2023-10-13T08:42:54;14.35;;;6.68;;
25359;SDS011;13311;51.386;0.016;2023-10-13T08:48:03;10.73;;;6.22;;
25359;SDS011;13311;51.386;0.016;2023-10-13T08:53:25;14.93;;;7.55;;
25359;SDS011;13311;51.386;0.016;2023-10-13T08:58:31;19.98;;;7.63;;
25359;SDS011;13311;51.386;0.016;2023-10-13T09:03:52;15.30;;;6.03;;
25359;SDS011;13311;51.386;0.016;2023-10-13T09:09:17;10.93;;;5.82;;
25359;SDS011;13311;51.386;0.016;2023-10-13T09:14:36;17.58;;;6.70;;
25359;SDS011;13311;51.386;0.016;2023-10-13T09:19:46;16.53;;;6.10;;
25359;SDS011;13311;51.386;0.016;2023-10-13T09:24:58;13.73;;;5.72;;
25359;SDS011;13311;51.386;0.016;2023-10-13T09:29:59;13.20;;;6.40;;
25359;SDS011;13311;51.386;0.016;2023-10-13T09:35:18;13.35;;;5.90;;
25359;SDS011;13311;51.386;0.016;2023-10-13T09:40:27;14.88;;;6.50;;
25359;SDS011;13311;51.386;0.016;2023-10-13T09:45:47;9.32;;;5.45;;
25359;SDS011;13311;51.386;0.016;2023-10-13T09:51:11;12.68;;;5.35;;
25359;SDS011;13311;51.386;0.016;2023-10-13T09:56:21;6.43;;;4.45;;
25359;SDS011;13311;51.386;0.016;2023-10-13T10:01:28;7.63;;;4.68;;
25359;SDS011;13311;51.386;0.016;2023-10-13T10:06:33;13.00;;;4.25;;
25359;SDS011;13311;51.386;0.016;2023-10-13T10:17:17;11.73;;;4.10;;
25359;SDS011;13311;51.386;0.016;2023-10-13T10:22:31;6.43;;;3.55;;
25359;SDS011;13311;51.386;0.016;2023-10-13T10:27:56;6.18;;;3.92;;
25359;SDS011;13311;51.386;0.016;2023-10-13T10:32:58;8.15;;;4.15;;
25359;SDS011;13311;51.386;0.016;2023-10-13T10:38:10;10.40;;;4.70;;
25359;SDS011;13311;51.386;0.016;2023-10-13T10:43:39;8.52;;;4.18;;
25359;SDS011;13311;51.386;0.016;2023-10-13T10:48:43;7.93;;;5.03;;
25359;SDS011;13311;51.386;0.016;2023-10-13T10:53:45;11.27;;;4.85;;
25359;SDS011;13311;51.386;0.016;2023-10-13T10:58:47;12.45;;;4.53;;
25359;SDS011;13311;51.386;0.016;2023-10-13T11:03:57;14.57;;;5.45;;
25359;SDS011;13311;51.386;0.016;2023-10-13T11:09:08;9.38;;;4.70;;
25359;SDS011;13311;51.386;0.016;2023-10-13T11:14:31;12.77;;;4.88;;
25359;SDS011;13311;51.386;0.016;2023-10-13T11:19:38;13.00;;;4.57;;
25359;SDS011;13311;51.386;0.016;2023-10-13T11:24:41;11.32;;;5.90;;
25359;SDS011;13311;51.386;0.016;2023-10-13T11:29:42;7.80;;;4.78;;
25359;SDS011;13311;51.386;0.016;2023-10-13T11:34:52;17.13;;;6.07;;
25359;SDS011;13311;51.386;0.016;2023-10-13T11:39:54;19.17;;;7.20;;
25359;SDS011;13311;51.386;0.016;2023-10-13T11:44:55;16.35;;;6.18;;
25359;SDS011;13311;51.386;0.016;2023-10-13T11:50:16;16.85;;;5.25;;
25359;SDS011;13311;51.386;0.016;2023-10-13T11:55:32;13.60;;;5.50;;
25359;SDS011;13311;51.386;0.016;2023-10-13T12:00:32;12.38;;;5.38;;
25359;SDS011;13311;51.386;0.016;2023-10-13T12:05:54;13.50;;;4.22;;
25359;SDS011;13311;51.386;0.016;2023-10-13T12:11:13;11.40;;;4.00;;
25359;SDS011;13311;51.386;0.016;2023-10-13T12:16:38;11.10;;;4.20;;
25359;SDS011;13311;51.386;0.016;2023-10-13T12:21:39;13.18;;;3.75;;
25359;SDS011;13311;51.386;0.016;2023-10-13T12:26:43;12.32;;;3.90;;
25359;SDS011;13311;51.386;0.016;2023-10-13T12:31:44;11.38;;;3.80;;
25359;SDS011;13311;51.386;0.016;2023-10-13T12:36:52;13.20;;;3.20;;
25359;SDS011;13311;51.386;0.016;2023-10-13T12:42:05;14.60;;;4.55;;
25359;SDS011;13311;51.386;0.016;2023-10-13T12:47:24;12.75;;;3.65;;
25359;SDS011;13311;51.386;0.016;2023-10-13T12:52:44;11.40;;;3.92;;
25359;SDS011;13311;51.386;0.016;2023-10-13T12:57:45;20.75;;;5.03;;
25359;SDS011;13311;51.386;0.016;2023-10-13T13:02:46;15.70;;;4.82;;
25359;SDS011;13311;51.386;0.016;2023-10-13T13:07:47;11.32;;;3.97;;
25359;SDS011;13311;51.386;0.016;2023-10-13T13:12:52;19.48;;;4.65;;
25359;SDS011;13311;51.386;0.016;2023-10-13T13:17:54;13.38;;;4.15;;
25359;SDS011;13311;51.386;0.016;2023-10-13T13:22:55;17.35;;;4.18;;
25359;SDS011;13311;51.386;0.016;2023-10-13T13:28:02;8.63;;;2.53;;
25359;SDS011;13311;51.386;0.016;2023-10-13T13:33:05;14.02;;;3.95;;
25359;SDS011;13311;51.386;0.016;2023-10-13T13:38:16;12.65;;;3.28;;
25359;SDS011;13311;51.386;0.016;2023-10-13T13:43:22;8.75;;;3.15;;
25359;SDS011;13311;51.386;0.016;2023-10-13T13:48:38;10.88;;;2.83;;
25359;SDS011;13311;51.386;0.016;2023-10-13T13:53:41;13.73;;;3.72;;
25359;SDS011;13311;51.386;0.016;2023-10-13T13:58:46;15.48;;;4.05;;
25359;SDS011;13311;51.386;0.016;2023-10-13T14:03:56;14.27;;;3.65;;
25359;SDS011;13311;51.386;0.016;2023-10-13T14:09:02;12.38;;;2.78;;
25359;SDS011;13311;51.386;0.016;2023-10-13T14:14:14;9.32;;;3.42;;
25359;SDS011;13311;51.386;0.016;2023-10-13T14:19:25;13.30;;;3.28;;
25359;SDS011;13311;51.386;0.016;2023-10-13T14:24:28;12.25;;;3.25;;
25359;SDS011;13311;51.386;0.016;2023-10-13T14:29:33;11.93;;;3.35;;
25359;SDS011;13311;51.386;0.016;2023-10-13T14:34:40;13.82;;;3.20;;
25359;SDS011;13311;51.386;0.016;2023-10-13T14:39:42;12.13;;;2.90;;
25359;SDS011;13311;51.386;0.016;2023-10-13T14:44:43;14.68;;;3.00;;
25359;SDS011;13311;51.386;0.016;2023-10-13T14:49:43;15.75;;;3.67;;
25359;SDS011;13311;51.386;0.016;2023-10-13T14:54:44;18.13;;;4.68;;
25359;SDS011;13311;51.386;0.016;2023-10-13T14:59:45;12.68;;;3.40;;
25359;SDS011;13311;51.386;0.016;2023-10-13T15:04:48;14.38;;;3.20;;
25359;SDS011;13311;51.386;0.016;2023-10-13T15:09:49;11.18;;;3.65;;
25359;SDS011;13311;51.386;0.016;2023-10-13T15:14:50;17.92;;;3.80;;
25359;SDS011;13311;51.386;0.016;2023-10-13T15:19:53;17.35;;;3.13;;
25359;SDS011;13311;51.386;0.016;2023-10-13T15:24:54;11.25;;;2.80;;
25359;SDS011;13311;51.386;0.016;2023-10-13T15:30:08;16.45;;;3.83;;
25359;SDS011;13311;51.386;0.016;2023-10-13T15:35:20;9.50;;;2.92;;
25359;SDS011;13311;51.386;0.016;2023-10-13T15:40:22;9.75;;;3.40;;
25359;SDS011;13311;51.386;0.016;2023-10-13T15:45:24;10.15;;;2.63;;
25359;SDS011;13311;51.386;0.016;2023-10-13T15:50:35;13.65;;;2.92;;
25359;SDS011;13311;51.386;0.016;2023-10-13T15:55:40;9.57;;;2.55;;
25359;SDS011;13311;51.386;0.016;2023-10-13T16:00:41;8.40;;;2.22;;
25359;SDS011;13311;51.386;0.016;2023-10-13T16:05:42;16.00;;;3.05;;
25359;SDS011;13311;51.386;0.016;2023-10-13T16:10:42;8.88;;;2.67;;
25359;SDS011;13311;51.386;0.016;2023-10-13T16:15:43;9.35;;;2.92;;
25359;SDS011;13311;51.386;0.016;2023-10-13T16:20:47;11.55;;;2.72;;
25359;SDS011;13311;51.386;0.016;2023-10-13T16:25:50;17.67;;;2.92;;
25359;SDS011;13311;51.386;0.016;2023-10-13T16:30:51;9.68;;;3.03;;
25359;SDS011;13311;51.386;0.016;2023-10-13T16:35:53;11.00;;;2.30;;
25359;SDS011;13311;51.386;0.016;2023-10-13T16:40:56;9.80;;;2.10;;
25359;SDS011;13311;51.386;0.016;2023-10-13T16:45:57;10.52;;;2.90;;
25359;SDS011;13311;51.386;0.016;2023-10-13T16:50:58;11.07;;;3.53;;
25359;SDS011;13311;51.386;0.016;2023-10-13T16:55:59;10.32;;;3.08;;
25359;SDS011;13311;51.386;0.016;2023-10-13T17:01:00;12.23;;;3.53;;
25359;SDS011;13311;51.386;0.016;2023-10-13T17:06:04;10.45;;;2.58;;
25359;SDS011;13311;51.386;0.016;2023-10-13T17:11:08;12.52;;;3.83;;
25359;SDS011;13311;51.386;0.016;2023-10-13T17:16:17;11.07;;;2.28;;
25359;SDS011;13311;51.386;0.016;2023-10-13T17:21:21;7.75;;;1.83;;
25359;SDS011;13311;51.386;0.016;2023-10-13T17:26:28;7.50;;;2.40;;
25359;SDS011;13311;51.386;0.016;2023-10-13T17:31:30;7.40;;;2.05;;
25359;SDS011;13311;51.386;0.016;2023-10-13T17:36:34;10.25;;;2.58;;
25359;SDS011;13311;51.386;0.016;2023-10-13T17:41:35;5.57;;;1.65;;
25359;SDS011;13311;51.386;0.016;2023-10-13T17:46:35;4.55;;;1.48;;
25359;SDS011;13311;51.386;0.016;2023-10-13T17:51:39;6.68;;;1.73;;
25359;SDS011;13311;51.386;0.016;2023-10-13T17:56:41;4.93;;;1.50;;
25359;SDS011;13311;51.386;0.016;2023-10-13T18:01:42;3.45;;;1.20;;
25359;SDS011;13311;51.386;0.016;2023-10-13T18:06:43;6.55;;;1.40;;
25359;SDS011;13311;51.386;0.016;2023-10-13T18:11:44;4.20;;;1.10;;
25359;SDS011;13311;51.386;0.016;2023-10-13T18:16:45;2.70;;;0.90;;
25359;SDS011;13311;51.386;0.016;2023-10-13T18:21:49;8.88;;;1.80;;
25359;SDS011;13311;51.386;0.016;2023-10-13T18:26:50;1.98;;;0.63;;
25359;SDS011;13311;51.386;0.016;2023-10-13T18:31:50;1.55;;;0.50;;
25359;SDS011;13311;51.386;0.016;2023-10-13T18:36:51;2.22;;;0.50;;
25359;SDS011;13311;51.386;0.016;2023-10-13T18:41:52;2.13;;;0.82;;
25359;SDS011;13311;51.386;0.016;2023-10-13T18:46:53;1.23;;;0.60;;
25359;SDS011;13311;51.386;0.016;2023-10-13T18:51:54;1.67;;;0.70;;
25359;SDS011;13311;51.386;0.016;2023-10-13T18:56:58;1.50;;;0.60;;
25359;SDS011;13311;51.386;0.016;2023-10-13T19:01:58;1.75;;;0.50;;
25359;SDS011;13311;51.386;0.016;2023-10-13T19:07:00;1.45;;;0.75;;
25359;SDS011;13311;51.386;0.016;2023-10-13T19:12:01;0.75;;;0.47;;
25359;SDS011;13311;51.386;0.016;2023-10-13T19:17:05;1.00;;;0.40;;
25359;SDS011;13311;51.386;0.016;2023-10-13T19:22:05;0.40;;;0.40;;
25359;SDS011;13311;51.386;0.016;2023-10-13T19:27:06;1.73;;;0.85;;
25359;SDS011;13311;51.386;0.016;2023-10-13T19:32:07;2.90;;;0.82;;
25359;SDS011;13311;51.386;0.016;2023-10-13T19:37:08;2.33;;;1.40;;
25359;SDS011;13311;51.386;0.016;2023-10-13T19:42:09;2.05;;;1.17;;
25359;SDS011;13311;51.386;0.016;2023-10-13T19:47:10;3.25;;;1.50;;
25359;SDS011;13311;51.386;0.016;2023-10-13T19:52:13;3.13;;;1.27;;
25359;SDS011;13311;51.386;0.016;2023-10-13T19:57:17;4.10;;;1.90;;
25359;SDS011;13311;51.386;0.016;2023-10-13T20:02:17;5.55;;;2.03;;
25359;SDS011;13311;51.386;0.016;2023-10-13T20:07:21;10.93;;;2.35;;
25359;SDS011;13311;51.386;0.016;2023-10-13T20:12:22;4.68;;;1.90;;
25359;SDS011;13311;51.386;0.016;2023-10-13T20:17:22;8.35;;;2.33;;
25359;SDS011;13311;51.386;0.016;2023-10-13T20:22:23;10.57;;;2.35;;
25359;SDS011;13311;51.386;0.016;2023-10-13T20:27:24;12.77;;;2.50;;
25359;SDS011;13311;51.386;0.016;2023-10-13T20:32:25;10.30;;;2.90;;
25359;SDS011;13311;51.386;0.016;2023-10-13T20:37:25;11.90;;;2.90;;
25359;SDS011;13311;51.386;0.016;2023-10-13T20:42:29;10.63;;;2.95;;
25359;SDS011;13311;51.386;0.016;2023-10-13T20:47:30;7.97;;;2.45;;
25359;SDS011;13311;51.386;0.016;2023-10-13T20:52:30;8.95;;;2.90;;
25359;SDS011;13311;51.386;0.016;2023-10-13T20:57:31;7.53;;;2.95;;
25359;SDS011;13311;51.386;0.016;2023-10-13T21:02:32;8.02;;;3.05;;
25359;SDS011;13311;51.386;0.016;2023-10-13T21:07:33;12.75;;;2.67;;
25359;SDS011;13311;51.386;0.016;2023-10-13T21:12:34;10.70;;;2.78;;
25359;SDS011;13311;51.386;0.016;2023-10-13T21:17:34;14.13;;;3.28;;
25359;SDS011;13311;51.386;0.016;2023-10-13T21:22:35;15.48;;;3.38;;
25359;SDS011;13311;51.386;0.016;2023-10-13T21:27:36;13.13;;;2.80;;
25359;SDS011;13311;51.386;0.016;2023-10-13T21:32:37;12.70;;;3.90;;
25359;SDS011;13311;51.386;0.016;2023-10-13T21:37:38;12.82;;;3.22;;
25359;SDS011;13311;51.386;0.016;2023-10-13T21:42:39;9.68;;;2.72;;
25359;SDS011;13311;51.386;0.016;2023-10-13T21:47:42;11.35;;;2.67;;
25359;SDS011;13311;51.386;0.016;2023-10-13T21:52:44;7.13;;;2.92;;
25359;SDS011;13311;51.386;0.016;2023-10-13T21:57:49;9.73;;;3.38;;
25359;SDS011;13311;51.386;0.016;2023-10-13T22:02:52;11.50;;;3.55;;
25359;SDS011;13311;51.386;0.016;2023-10-13T22:07:56;13.23;;;3.50;;
25359;SDS011;13311;51.386;0.016;2023-10-13T22:12:58;11.38;;;2.67;;
25359;SDS011;13311;51.386;0.016;2023-10-13T22:18:01;10.98;;;3.00;;
25359;SDS011;13311;51.386;0.016;2023-10-13T22:23:03;9.27;;;3.70;;
25359;SDS011;13311;51.386;0.016;2023-10-13T22:28:04;8.70;;;2.88;;
25359;SDS011;13311;51.386;0.016;2023-10-13T22:33:04;13.20;;;3.40;;
25359;SDS011;13311;51.386;0.016;2023-10-13T22:38:05;15.02;;;3.67;;
25359;SDS011;13311;51.386;0.016;2023-10-13T22:43:06;10.93;;;3.42;;
25359;SDS011;13311;51.386;0.016;2023-10-13T22:48:07;11.70;;;3.67;;
25359;SDS011;13311;51.386;0.016;2023-10-13T22:53:09;9.45;;;2.85;;
25359;SDS011;13311;51.386;0.016;2023-10-13T22:58:10;7.65;;;2.83;;
25359;SDS011;13311;51.386;0.016;2023-10-13T23:03:11;8.90;;;2.80;;
25359;SDS011;13311;51.386;0.016;2023-10-13T23:08:18;20.52;;;4.85;;
25359;SDS011;13311;51.386;0.016;2023-10-13T23:13:36;14.18;;;3.55;;
25359;SDS011;13311;51.386;0.016;2023-10-13T23:18:38;10.93;;;2.90;;
25359;SDS011;13311;51.386;0.016;2023-10-13T23:23:40;6.80;;;2.38;;
25359;SDS011;13311;51.386;0.016;2023-10-13T23:28:42;12.40;;;3.72;;
25359;SDS011;13311;51.386;0.016;2023-10-13T23:33:47;13.85;;;3.20;;
25359;SDS011;13311;51.386;0.016;2023-10-13T23:38:48;11.73;;;3.13;;
25359;SDS011;13311;51.386;0.016;2023-10-13T23:44:09;11.18;;;2.67;;
25359;SDS011;13311;51.386;0.016;2023-10-13T23:49:13;10.20;;;2.38;;
25359;SDS011;13311;51.386;0.016;2023-10-13T23:54:18;8.95;;;2.85;;
25359;SDS011;13311;51.386;0.016;2023-10-13T23:59:19;11.38;;;2.25;;
